createdAt,value
2022-12-17T00:02:08.094Z,100603.16
2022-12-17T00:04:59.290Z,100610.61
2022-12-17T00:07:48.419Z,100612.48
2022-12-17T00:10:36.798Z,100612.98
2022-12-17T00:13:24.864Z,100618.11
2022-12-17T00:16:14.902Z,100625.35
2022-12-17T00:19:03.411Z,100622.73
2022-12-17T00:21:53.837Z,100625.31
2022-12-17T00:24:45.233Z,100628.92
2022-12-17T00:27:33.483Z,100635.52
2022-12-17T00:30:21.979Z,100642.70
2022-12-17T00:33:10.372Z,100642.75
2022-12-17T00:35:58.858Z,100639.30
2022-12-17T00:38:48.693Z,100636.02
2022-12-17T00:41:36.778Z,100638.75
2022-12-17T00:44:24.763Z,100644.24
2022-12-17T00:47:15.304Z,100652.75
2022-12-17T00:50:04.466Z,100655.16
2022-12-17T00:52:52.662Z,100663.27
2022-12-17T00:55:40.409Z,100667.22
2022-12-17T00:58:29.494Z,100674.77
2022-12-17T01:01:19.367Z,100680.34
2022-12-17T01:04:07.255Z,100681.66
2022-12-17T01:06:55.665Z,100679.98
2022-12-17T01:09:47.954Z,100682.07
2022-12-17T01:12:38.607Z,100687.67
2022-12-17T01:15:27.153Z,100691.10
2022-12-17T01:18:15.768Z,100691.60
2022-12-17T01:21:04.362Z,100687.88
2022-12-17T01:23:52.805Z,100682.06
2022-12-17T01:26:40.822Z,100685.44
2022-12-17T01:29:31.407Z,100687.80
2022-12-17T01:32:21.590Z,100692.84
2022-12-17T01:35:09.829Z,100697.95
2022-12-17T01:37:58.523Z,100700.50
2022-12-17T01:40:56.771Z,100702.02
2022-12-17T01:43:59.213Z,100700.27
2022-12-17T01:47:11.344Z,100700.23
2022-12-17T01:50:06.659Z,100694.42
2022-12-17T01:52:59.807Z,100691.52
2022-12-17T01:55:48.456Z,100698.66
2022-12-17T01:58:59.386Z,100698.09
2022-12-17T02:01:53.813Z,100695.02
2022-12-17T02:04:43.360Z,100691.81
2022-12-17T02:08:07.468Z,100699.80
2022-12-17T02:11:30.728Z,100704.71
2022-12-17T02:14:46.487Z,100705.05
2022-12-17T02:17:43.509Z,100707.02
2022-12-17T02:21:09.345Z,100701.15
2022-12-17T02:24:42.757Z,100702.66
2022-12-17T02:27:36.381Z,100708.52
2022-12-17T02:30:29.363Z,100710.10
2022-12-17T02:33:32.472Z,100707.73
2022-12-17T02:36:27.162Z,100706.85
2022-12-17T02:39:17.225Z,100708.20
2022-12-17T02:42:12.952Z,100712.45
2022-12-17T02:45:05.160Z,100714.52
2022-12-17T02:47:53.968Z,100712.52
2022-12-17T02:50:42.705Z,100714.79
2022-12-17T02:53:32.243Z,100708.69
2022-12-17T02:56:20.344Z,100707.30
2022-12-17T02:59:10.732Z,100709.16
2022-12-17T03:02:02.948Z,100710.30
2022-12-17T03:04:54.312Z,100710.29
2022-12-17T03:07:42.467Z,100713.36
2022-12-17T03:10:30.349Z,100715.67
2022-12-17T03:13:18.400Z,100720.63
2022-12-17T03:16:06.514Z,100724.06
2022-12-17T03:18:54.464Z,100725.31
2022-12-17T03:21:50.049Z,100721.63
2022-12-17T03:24:37.741Z,100717.59
2022-12-17T03:27:27.904Z,100717.40
2022-12-17T03:30:15.899Z,100717.36
2022-12-17T03:33:03.798Z,100718.80
2022-12-17T03:35:54.089Z,100715.13
2022-12-17T03:38:44.996Z,100718.89
2022-12-17T03:41:35.892Z,100720.17
2022-12-17T03:44:23.702Z,100719.19
2022-12-17T03:47:12.034Z,100722.60
2022-12-17T03:49:59.967Z,100725.17
2022-12-17T03:52:52.743Z,100724.66
2022-12-17T03:55:43.959Z,100725.08
2022-12-17T03:58:32.202Z,100731.80
2022-12-17T04:01:23.681Z,100739.71
2022-12-17T04:04:14.575Z,100746.83
2022-12-17T04:07:02.889Z,100757.36
2022-12-17T04:09:50.727Z,100765.38
2022-12-17T04:12:39.044Z,100776.02
2022-12-17T04:15:27.958Z,100782.20
2022-12-17T04:18:16.270Z,100784.34
2022-12-17T04:21:07.238Z,100788.12
2022-12-17T04:23:55.910Z,100791.02
2022-12-17T04:26:43.663Z,100788.15
2022-12-17T04:29:31.255Z,100782.59
2022-12-17T04:32:18.930Z,100783.44
2022-12-17T04:35:06.357Z,100780.23
2022-12-17T04:37:56.660Z,100793.45
2022-12-17T04:40:44.547Z,100805.20
2022-12-17T04:43:32.662Z,100808.52
2022-12-17T04:46:37.293Z,100810.30
2022-12-17T04:49:25.552Z,100817.30
2022-12-17T04:52:13.604Z,100818.30
2022-12-17T04:55:01.790Z,100813.52
2022-12-17T04:57:50.026Z,100815.58
2022-12-17T05:00:38.589Z,100819.80
2022-12-17T05:03:31.693Z,100824.95
2022-12-17T05:06:20.765Z,100828.69
2022-12-17T05:09:08.504Z,100833.23
2022-12-17T05:11:56.493Z,100837.47
2022-12-17T05:14:44.787Z,100835.30
2022-12-17T05:17:32.814Z,100839.24
2022-12-17T05:20:22.108Z,100842.15
2022-12-17T05:23:09.627Z,100841.63
2022-12-17T05:25:57.054Z,100838.75
2022-12-17T05:28:44.717Z,100834.80
2022-12-17T05:31:32.443Z,100839.48
2022-12-17T05:34:20.042Z,100842.93
2022-12-17T05:37:07.774Z,100852.42
2022-12-17T05:39:55.258Z,100855.21
2022-12-17T05:42:42.870Z,100851.53
2022-12-17T05:45:30.647Z,100853.70
2022-12-17T05:48:18.730Z,100854.35
2022-12-17T05:51:10.130Z,100861.63
2022-12-17T05:53:58.300Z,100873.83
2022-12-17T05:56:46.165Z,100878.47
2022-12-17T05:59:34.099Z,100880.71
2022-12-17T06:02:22.422Z,100882.10
2022-12-17T06:05:12.796Z,100880.84
2022-12-17T06:08:02.351Z,100884.63
2022-12-17T06:10:50.613Z,100888.75
2022-12-17T06:13:38.813Z,100892.92
2022-12-17T06:16:29.478Z,100897.27
2022-12-17T06:19:34.598Z,100899.25
2022-12-17T06:22:22.192Z,100897.29
2022-12-17T06:25:10.343Z,100898.49
2022-12-17T06:27:58.145Z,100900.86
2022-12-17T06:30:47.331Z,100905.13
2022-12-17T06:33:39.151Z,100906.88
2022-12-17T06:36:27.749Z,100911.97
2022-12-17T06:39:16.018Z,100912.33
2022-12-17T06:42:04.610Z,100923.61
2022-12-17T06:44:54.202Z,100921.90
2022-12-17T06:47:42.159Z,100922.52
2022-12-17T06:50:36.776Z,100925.30
2022-12-17T06:53:26.728Z,100933.30
2022-12-17T06:56:18.984Z,100934.75
2022-12-17T06:59:07.379Z,100940.80
2022-12-17T07:01:55.605Z,100942.55
2022-12-17T07:04:43.857Z,100943.75
2022-12-17T07:07:31.748Z,100943.70
2022-12-17T07:10:19.804Z,100948.70
2022-12-17T07:13:07.360Z,100952.80
2022-12-17T07:15:55.353Z,100955.86
2022-12-17T07:18:43.524Z,100960.58
2022-12-17T07:21:31.241Z,100965.59
2022-12-17T07:24:22.539Z,100974.48
2022-12-17T07:27:10.523Z,100986.99
2022-12-17T07:29:58.314Z,100995.55
2022-12-17T07:32:45.984Z,101002.50
2022-12-17T07:35:34.022Z,101006.35
2022-12-17T07:38:23.787Z,101010.20
2022-12-17T07:41:11.872Z,101010.77
2022-12-17T07:44:02.015Z,101019.33
2022-12-17T07:46:50.611Z,101018.19
2022-12-17T07:49:37.872Z,101014.69
2022-12-17T07:52:25.509Z,101015.79
2022-12-17T07:55:16.786Z,101026.92
2022-12-17T07:58:05.585Z,101030.86
2022-12-17T08:00:53.177Z,101035.68
2022-12-17T08:03:41.650Z,101038.71
2022-12-17T08:06:33.812Z,101041.55
2022-12-17T08:09:21.974Z,101047.65
2022-12-17T08:12:10.065Z,101050.20
2022-12-17T08:14:57.576Z,101054.37
2022-12-17T08:17:55.973Z,101056.43
2022-12-17T08:20:43.975Z,101063.14
2022-12-17T08:23:31.878Z,101069.65
2022-12-17T08:26:19.995Z,101071.27
2022-12-17T08:29:09.907Z,101075.73
2022-12-17T08:31:57.919Z,101077.48
2022-12-17T08:34:46.793Z,101079.55
2022-12-17T08:37:34.255Z,101083.63
2022-12-17T08:40:22.094Z,101082.69
2022-12-17T08:43:16.555Z,101081.52
2022-12-17T08:46:09.623Z,101082.09
2022-12-17T08:49:08.326Z,101082.71
2022-12-17T08:51:55.744Z,101086.70
2022-12-17T08:54:43.345Z,101090.42
2022-12-17T08:57:32.150Z,101093.52
2022-12-17T09:00:20.527Z,101096.61
2022-12-17T09:03:08.393Z,101094.55
2022-12-17T09:05:56.729Z,101098.14
2022-12-17T09:08:47.310Z,101101.38
2022-12-17T09:11:38.282Z,101101.42
2022-12-17T09:14:29.425Z,101098.01
2022-12-17T09:17:17.539Z,101101.09
2022-12-17T09:20:12.990Z,101096.77
2022-12-17T09:23:01.259Z,101097.66
2022-12-17T09:25:53.739Z,101096.36
2022-12-17T09:28:45.930Z,101098.52
2022-12-17T09:31:37.251Z,101102.19
2022-12-17T09:34:25.401Z,101102.48
2022-12-17T09:37:13.077Z,101100.30
2022-12-17T09:40:01.074Z,101101.29
2022-12-17T09:43:17.067Z,101104.61
2022-12-17T09:46:28.824Z,101108.19
2022-12-17T09:49:37.558Z,101111.24
2022-12-17T09:52:50.102Z,101110.02
2022-12-17T09:56:05.853Z,101114.33
2022-12-17T09:58:59.400Z,101121.88
2022-12-17T10:01:56.142Z,101126.19
2022-12-17T10:05:04.543Z,101125.33
2022-12-17T10:07:57.407Z,101127.64
2022-12-17T10:10:51.380Z,101129.14
2022-12-17T10:13:42.135Z,101129.02
2022-12-17T10:17:08.443Z,101128.59
2022-12-17T10:20:01.425Z,101124.58
2022-12-17T10:23:00.626Z,101125.45
2022-12-17T10:25:48.888Z,101127.20
2022-12-17T10:28:44.416Z,101129.36
2022-12-17T10:31:41.067Z,101133.61
2022-12-17T10:34:39.578Z,101134.71
2022-12-17T10:37:38.718Z,101141.52
2022-12-17T10:40:44.738Z,101144.54
2022-12-17T10:43:51.886Z,101146.02
2022-12-17T10:46:47.046Z,101151.55
2022-12-17T10:49:40.692Z,101156.63
2022-12-17T10:52:46.467Z,101160.66
2022-12-17T10:55:44.184Z,101159.34
2022-12-17T10:58:40.259Z,101162.89
2022-12-17T11:01:39.647Z,101166.81
2022-12-17T11:05:12.291Z,101168.79
2022-12-17T11:08:02.795Z,101174.08
2022-12-17T11:10:59.404Z,101176.08
2022-12-17T11:13:52.508Z,101181.61
2022-12-17T11:17:12.747Z,101188.58
2022-12-17T11:20:36.981Z,101191.23
2022-12-17T11:23:28.535Z,101192.60
2022-12-17T11:26:33.038Z,101198.29
2022-12-17T11:29:20.791Z,101200.25
2022-12-17T11:32:29.135Z,101201.65
2022-12-17T11:35:42.284Z,101205.83
2022-12-17T11:38:53.827Z,101208.64
2022-12-17T11:42:13.085Z,101214.85
2022-12-17T11:45:20.785Z,101214.88
2022-12-17T11:48:31.198Z,101217.48
2022-12-17T11:51:36.979Z,101217.61
2022-12-17T11:54:38.746Z,101217.26
2022-12-17T11:58:08.049Z,101223.66
2022-12-17T12:01:39.696Z,101228.21
2022-12-17T12:04:43.639Z,101235.08
2022-12-17T12:07:47.215Z,101234.41
2022-12-17T12:10:52.510Z,101231.13
2022-12-17T12:14:12.352Z,101227.11
2022-12-17T12:17:40.897Z,101231.64
2022-12-17T12:21:04.763Z,101234.25
2022-12-17T12:24:11.014Z,101232.60
2022-12-17T12:27:25.365Z,101241.81
2022-12-17T12:30:42.882Z,101242.63
2022-12-17T12:33:42.492Z,101242.35
2022-12-17T12:36:35.835Z,101244.92
2022-12-17T12:39:29.251Z,101246.73
2022-12-17T12:42:45.170Z,101243.31
2022-12-17T12:46:11.789Z,101244.92
2022-12-17T12:49:44.042Z,101246.70
2022-12-17T12:52:39.840Z,101252.65
2022-12-17T12:55:30.695Z,101257.04
2022-12-17T12:58:19.499Z,101259.48
2022-12-17T13:01:07.047Z,101263.78
2022-12-17T13:04:03.660Z,101265.15
2022-12-17T13:06:49.319Z,101270.55
2022-12-17T13:09:19.208Z,101271.17
2022-12-17T13:12:02.070Z,101273.75
2022-12-17T13:14:47.657Z,101278.26
2022-12-17T13:17:17.051Z,101277.84
2022-12-17T13:20:02.177Z,101282.74
2022-12-17T13:22:33.963Z,101282.83
2022-12-17T13:25:23.991Z,101286.30
2022-12-17T13:27:54.651Z,101285.95
2022-12-17T13:30:39.205Z,101282.89
2022-12-17T13:33:27.102Z,101279.70
2022-12-17T13:36:52.614Z,101286.00
2022-12-17T13:39:28.923Z,101292.23
2022-12-17T13:42:00.659Z,101296.14
2022-12-17T13:45:02.940Z,101305.08
2022-12-17T13:47:38.916Z,101310.92
2022-12-17T13:50:35.499Z,101313.66
2022-12-17T13:53:15.545Z,101316.75
2022-12-17T13:55:53.278Z,101320.13
2022-12-17T13:58:35.975Z,101323.35
2022-12-17T14:01:09.020Z,101327.34
2022-12-17T14:04:05.083Z,101331.02
2022-12-17T14:06:38.395Z,101334.59
2022-12-17T14:09:18.436Z,101335.15
2022-12-17T14:12:08.969Z,101335.95
2022-12-17T14:14:41.361Z,101340.71
2022-12-17T14:17:23.997Z,101345.70
2022-12-17T14:20:07.677Z,101348.88
2022-12-17T14:22:49.441Z,101357.70
2022-12-17T14:25:24.640Z,101360.60
2022-12-17T14:27:57.532Z,101362.63
2022-12-17T14:31:02.686Z,101364.66
2022-12-17T14:33:37.367Z,101364.34
2022-12-17T14:36:16.754Z,101369.36
2022-12-17T14:39:03.488Z,101372.34
2022-12-17T14:42:00.086Z,101379.69
2022-12-17T14:44:31.595Z,101384.69
2022-12-17T14:47:40.794Z,101387.36
2022-12-17T14:50:26.108Z,101392.42
2022-12-17T14:53:23.566Z,101395.91
2022-12-17T14:56:02.227Z,101398.48
2022-12-17T14:58:31.752Z,101405.64
2022-12-17T15:01:09.363Z,101409.15
2022-12-17T15:03:47.055Z,101418.94
2022-12-17T15:06:20.671Z,101425.95
2022-12-17T15:08:53.374Z,101427.27
2022-12-17T15:11:23.967Z,101427.17
2022-12-17T15:13:56.673Z,101429.79
2022-12-17T15:16:27.231Z,101432.84
2022-12-17T15:18:56.767Z,101436.16
2022-12-17T15:21:27.176Z,101437.02
2022-12-17T15:23:56.912Z,101436.79
2022-12-17T15:26:27.014Z,101438.14
2022-12-17T15:28:57.284Z,101443.70
2022-12-17T15:31:31.938Z,101451.68
2022-12-17T15:34:05.131Z,101448.98
2022-12-17T15:36:34.931Z,101454.08
2022-12-17T15:39:06.461Z,101455.48
2022-12-17T15:41:54.719Z,101459.14
2022-12-17T15:44:28.163Z,101463.91
2022-12-17T15:46:57.583Z,101465.90
2022-12-17T15:49:30.153Z,101469.50
2022-12-17T15:51:59.592Z,101471.09
2022-12-17T15:54:29.585Z,101468.45
2022-12-17T15:57:19.024Z,101468.08
2022-12-17T16:00:09.257Z,101469.05
2022-12-17T16:02:47.288Z,101475.45
2022-12-17T16:05:18.209Z,101476.33
2022-12-17T16:07:52.345Z,101473.84
2022-12-17T16:10:22.024Z,101473.13
2022-12-17T16:12:57.321Z,101474.34
2022-12-17T16:15:31.988Z,101473.41
2022-12-17T16:18:02.000Z,101475.30
2022-12-17T16:20:32.126Z,101479.42
2022-12-17T16:23:01.858Z,101484.74
2022-12-17T16:25:33.902Z,101490.68
2022-12-17T16:28:03.536Z,101492.18
2022-12-17T16:30:33.190Z,101496.25
2022-12-17T16:33:02.790Z,101505.74
2022-12-17T16:35:32.418Z,101513.80
2022-12-17T16:38:02.919Z,101517.27
2022-12-17T16:40:32.608Z,101518.84
2022-12-17T16:43:02.393Z,101521.30
2022-12-17T16:45:32.447Z,101528.38
2022-12-17T16:48:14.852Z,101531.86
2022-12-17T16:50:52.074Z,101528.19
2022-12-17T16:53:21.902Z,101527.66
2022-12-17T16:55:53.184Z,101528.84
2022-12-17T16:58:38.489Z,101529.23
2022-12-17T17:01:36.021Z,101530.94
2022-12-17T17:04:09.131Z,101530.90
2022-12-17T17:06:57.119Z,101530.80
2022-12-17T17:09:26.640Z,101531.17
2022-12-17T17:11:58.718Z,101534.95
2022-12-17T17:14:28.035Z,101538.02
2022-12-17T17:16:57.290Z,101538.70
2022-12-17T17:19:26.652Z,101538.20
2022-12-17T17:21:59.306Z,101542.72
2022-12-17T17:24:31.514Z,101544.23
2022-12-17T17:27:09.791Z,101543.83
2022-12-17T17:29:44.126Z,101550.50
2022-12-17T17:32:14.237Z,101557.88
2022-12-17T17:34:47.118Z,101563.83
2022-12-17T17:37:19.062Z,101574.98
2022-12-17T17:39:48.389Z,101579.94
2022-12-17T17:42:18.251Z,101584.14
2022-12-17T17:44:49.372Z,101590.08
2022-12-17T17:47:23.192Z,101587.27
2022-12-17T17:49:58.521Z,101590.71
2022-12-17T17:52:44.276Z,101591.82
2022-12-17T17:55:18.659Z,101598.20
2022-12-17T18:00:34.476Z,101596.36
2022-12-17T18:03:13.504Z,101599.02
2022-12-17T18:05:49.704Z,101597.52
2022-12-17T18:08:23.006Z,101600.84
2022-12-17T18:11:39.101Z,101604.64
2022-12-17T18:14:23.692Z,101606.77
2022-12-17T18:17:02.398Z,101606.96
2022-12-17T18:19:36.559Z,101609.76
2022-12-17T18:22:12.866Z,101609.04
2022-12-17T18:24:47.167Z,101617.02
2022-12-17T18:27:16.826Z,101623.81
2022-12-17T18:29:49.011Z,101629.98
2022-12-17T18:32:27.283Z,101632.64
2022-12-17T18:34:57.157Z,101634.41
2022-12-17T18:37:30.191Z,101639.23
2022-12-17T18:40:00.110Z,101643.98
2022-12-17T18:42:59.530Z,101649.95
2022-12-17T18:45:31.404Z,101654.26
2022-12-17T18:48:08.546Z,101656.08
2022-12-17T18:50:39.278Z,101658.45
2022-12-17T18:53:10.199Z,101661.95
2022-12-17T18:55:44.553Z,101670.56
2022-12-17T18:58:25.038Z,101673.55
2022-12-17T19:00:56.779Z,101672.49
2022-12-17T19:03:33.543Z,101676.58
2022-12-17T19:06:14.608Z,101679.95
2022-12-17T19:08:49.287Z,101679.23
2022-12-17T19:11:40.458Z,101684.92
2022-12-17T19:17:10.574Z,101699.77
2022-12-17T19:19:42.979Z,101704.14
2022-12-17T19:22:25.651Z,101710.95
2022-12-17T19:25:09.389Z,101710.04
2022-12-17T19:27:47.053Z,101712.73
2022-12-17T19:30:17.046Z,101711.98
2022-12-17T19:32:48.362Z,101713.53
2022-12-17T19:35:20.420Z,101715.11
2022-12-17T19:37:58.437Z,101718.27
2022-12-17T19:40:29.448Z,101723.17
2022-12-17T19:42:59.928Z,101726.39
2022-12-17T19:45:37.008Z,101726.99
2022-12-17T19:48:18.793Z,101730.04
2022-12-17T19:50:58.740Z,101736.23
2022-12-17T19:53:32.780Z,101736.96
2022-12-17T19:56:14.503Z,101738.41
2022-12-17T19:58:53.502Z,101746.38
2022-12-17T20:01:34.767Z,101752.29
2022-12-17T20:04:12.036Z,101754.38
2022-12-17T20:06:48.177Z,101760.89
2022-12-17T20:09:19.983Z,101759.83
2022-12-17T20:11:49.759Z,101760.39
2022-12-17T20:14:26.596Z,101765.12
2022-12-17T20:17:00.464Z,101759.85
2022-12-17T20:19:43.008Z,101764.86
2022-12-17T20:22:23.093Z,101766.63
2022-12-17T20:24:55.200Z,101775.77
2022-12-17T20:27:25.016Z,101776.65
2022-12-17T20:29:54.780Z,101779.41
2022-12-17T20:32:29.542Z,101781.11
2022-12-17T20:35:01.179Z,101785.02
2022-12-17T20:37:34.293Z,101783.55
2022-12-17T20:40:04.503Z,101788.96
2022-12-17T20:42:34.349Z,101794.23
2022-12-17T20:45:04.607Z,101798.71
2022-12-17T20:47:35.785Z,101807.41
2022-12-17T20:50:06.067Z,101810.33
2022-12-17T20:52:35.690Z,101808.91
2022-12-17T20:55:06.225Z,101814.21
2022-12-17T20:57:43.259Z,101811.61
2022-12-17T21:00:39.554Z,101813.17
2022-12-17T21:03:43.784Z,101816.74
2022-12-17T21:06:45.935Z,101818.16
2022-12-17T21:09:20.473Z,101822.74
2022-12-17T21:11:55.479Z,101822.10
2022-12-17T21:14:35.145Z,101826.56
2022-12-17T21:17:07.668Z,101829.31
2022-12-17T21:19:37.535Z,101829.14
2022-12-17T21:22:09.941Z,101827.77
2022-12-17T21:24:42.774Z,101833.05
2022-12-17T21:27:19.811Z,101838.95
2022-12-17T21:29:53.419Z,101838.49
2022-12-17T21:32:33.372Z,101839.45
2022-12-17T21:35:15.197Z,101841.79
2022-12-17T21:37:51.891Z,101841.73
2022-12-17T21:40:21.591Z,101847.24
2022-12-17T21:43:31.883Z,101844.13
2022-12-17T21:46:17.592Z,101842.65
2022-12-17T21:48:59.160Z,101849.60
2022-12-17T21:51:46.274Z,101849.93
2022-12-17T21:54:19.929Z,101850.80
2022-12-17T21:56:50.067Z,101855.87
2022-12-17T21:59:22.871Z,101855.63
2022-12-17T22:02:11.248Z,101861.84
2022-12-17T22:04:46.833Z,101868.14
2022-12-17T22:07:20.217Z,101869.70
2022-12-17T22:10:25.068Z,101876.33
2022-12-17T22:13:21.656Z,101869.64
2022-12-17T22:15:57.518Z,101867.55
2022-12-17T22:18:27.691Z,101871.41
2022-12-17T22:21:03.023Z,101874.82
2022-12-17T22:23:49.485Z,101874.52
2022-12-17T22:26:28.857Z,101881.04
2022-12-17T22:29:07.494Z,101883.20
2022-12-17T22:35:23.162Z,101890.11
2022-12-17T22:40:33.326Z,101888.59
2022-12-17T22:44:35.211Z,101892.18
2022-12-17T22:44:42.468Z,101895.07
2022-12-17T22:46:38.726Z,101900.44
2022-12-17T22:49:15.097Z,101904.79
2022-12-17T22:55:11.111Z,101898.23
2022-12-17T22:57:45.115Z,101904.14
2022-12-17T23:00:32.048Z,101905.73
2022-12-17T23:03:03.084Z,101909.64
2022-12-17T23:05:35.951Z,101911.05
2022-12-17T23:08:15.855Z,101912.75
2022-12-17T23:11:01.403Z,101917.16
2022-12-17T23:13:48.374Z,101921.76
2022-12-17T23:16:25.053Z,101926.42
2022-12-17T23:19:05.491Z,101932.09
2022-12-17T23:21:35.484Z,101942.53
2022-12-17T23:24:10.071Z,101946.93
2022-12-17T23:26:41.560Z,101945.34
2022-12-17T23:29:20.626Z,101948.11
2022-12-17T23:32:04.238Z,101949.91
2022-12-17T23:34:33.804Z,101951.00
2022-12-17T23:37:10.292Z,101953.73
2022-12-17T23:39:41.542Z,101956.20
2022-12-17T23:42:13.745Z,101958.26
2022-12-17T23:44:43.436Z,101963.75
2022-12-17T23:47:15.394Z,101966.54
2022-12-17T23:49:56.580Z,101971.48
2022-12-17T23:52:27.752Z,101975.95
2022-12-17T23:55:01.085Z,101975.49
2022-12-17T23:57:39.018Z,101978.70
